Glenvar, Virginia
Current Conditions -  °F | °C
As of 10:54 AM on Tuesday 27 Jan 2015 (Local Time) from KROA Reporting Station
Scattered Clouds Scattered Clouds  
Wind Chill: 25°   Ceiling: Unl
Heat Index: 33°   Visibility: 10mi
Dew Point:   Wind: 10mph
Humidity: 34%   Direction: 310°NW
Pressure: 29.86"   Gusts: NA
Location:  37.2956°N, 80.1166°W
Report Text: KROA 271554Z 31009KT 10SM SCT250 01/M14 A2986 RMK AO2 SLP119 T00061139
Loading
Personal Weather Stations






























Interactive Weather Map New forecast layout! Learn more

10-Day Weather Forecast

Advertisements
Track Severe Weather on mobile